createdAt,value
2019-04-30T00:02:02.277Z,5.37
2019-04-30T00:04:37.522Z,4.47
2019-04-30T00:07:03.113Z,5.00
2019-04-30T00:09:32.250Z,4.07
2019-04-30T00:12:01.439Z,3.70
2019-04-30T00:14:36.839Z,4.67
2019-04-30T00:17:00.548Z,4.13
2019-04-30T00:19:29.196Z,4.60
2019-04-30T00:22:00.471Z,5.17
2019-04-30T00:24:28.355Z,4.17
2019-04-30T00:26:57.079Z,4.57
2019-04-30T00:29:30.156Z,4.60
2019-04-30T00:31:59.322Z,3.93
2019-04-30T00:34:30.917Z,4.77
2019-04-30T00:36:57.331Z,5.33
2019-04-30T00:39:27.266Z,4.40
2019-04-30T00:41:56.675Z,4.03
2019-04-30T00:44:28.351Z,4.10
2019-04-30T00:47:00.503Z,4.33
2019-04-30T00:49:26.658Z,4.70
2019-04-30T00:51:58.194Z,4.60
2019-04-30T00:54:27.942Z,4.27
2019-04-30T00:56:59.146Z,4.93
2019-04-30T00:59:26.669Z,4.93
2019-04-30T01:01:56.962Z,5.17
2019-04-30T01:04:28.218Z,4.33
2019-04-30T01:07:00.239Z,4.23
2019-04-30T01:09:27.404Z,4.10
2019-04-30T01:11:56.090Z,4.70
2019-04-30T01:14:28.283Z,4.10
2019-04-30T01:16:55.207Z,5.17
2019-04-30T01:19:30.101Z,4.90
2019-04-30T01:21:54.591Z,4.37
2019-04-30T01:24:27.509Z,4.97
2019-04-30T01:26:54.022Z,4.50
2019-04-30T01:29:22.706Z,4.27
2019-04-30T01:31:51.492Z,5.00
2019-04-30T01:34:20.231Z,4.30
2019-04-30T01:36:52.251Z,5.37
2019-04-30T01:39:19.615Z,4.10
2019-04-30T01:41:48.909Z,4.50
2019-04-30T01:44:19.370Z,5.07
2019-04-30T01:46:51.589Z,4.10
2019-04-30T01:49:20.062Z,4.20
2019-04-30T01:51:48.842Z,4.57
2019-04-30T01:54:24.050Z,4.90
2019-04-30T01:57:10.904Z,4.77
2019-04-30T01:59:58.307Z,4.50
2019-04-30T02:02:29.752Z,4.33
2019-04-30T02:04:59.139Z,3.63
2019-04-30T02:07:28.748Z,4.53
2019-04-30T02:09:58.840Z,3.93
2019-04-30T02:12:29.540Z,4.77
2019-04-30T02:14:59.656Z,4.60
2019-04-30T02:17:29.256Z,4.40
2019-04-30T02:19:59.323Z,4.63
2019-04-30T02:22:30.912Z,4.93
2019-04-30T02:24:58.736Z,4.90
2019-04-30T02:27:29.412Z,6.27
2019-04-30T02:29:59.403Z,4.90
2019-04-30T02:32:30.394Z,4.17
2019-04-30T02:35:12.790Z,4.37
2019-04-30T02:38:00.169Z,4.83
2019-04-30T02:40:30.750Z,4.27
2019-04-30T02:43:01.859Z,5.00
2019-04-30T02:45:31.781Z,4.30
2019-04-30T02:48:01.127Z,4.90
2019-04-30T02:50:30.559Z,4.60
2019-04-30T02:53:02.820Z,5.10
2019-04-30T02:55:44.527Z,4.83
2019-04-30T02:58:13.395Z,4.90
2019-04-30T03:00:42.028Z,4.93
2019-04-30T03:03:10.783Z,5.00
2019-04-30T03:05:39.575Z,4.73
2019-04-30T03:08:09.614Z,5.20
2019-04-30T03:10:40.172Z,5.40
2019-04-30T03:13:09.811Z,5.30
2019-04-30T03:15:39.440Z,4.40
2019-04-30T03:18:12.537Z,4.47
2019-04-30T03:20:42.968Z,4.50
2019-04-30T03:23:11.591Z,4.70
2019-04-30T03:25:40.623Z,4.53
2019-04-30T03:28:09.845Z,4.50
2019-04-30T03:30:42.065Z,5.10
2019-04-30T03:33:12.715Z,4.50
2019-04-30T03:35:46.679Z,3.97
2019-04-30T03:38:09.864Z,4.57
2019-04-30T03:40:40.453Z,4.70
2019-04-30T03:43:10.370Z,5.00
2019-04-30T03:45:40.214Z,4.60
2019-04-30T03:48:10.215Z,4.30
2019-04-30T03:50:50.416Z,5.13
2019-04-30T03:53:10.407Z,4.20
2019-04-30T03:55:40.092Z,4.33
2019-04-30T03:58:09.360Z,4.13
2019-04-30T04:00:46.695Z,5.00
2019-04-30T04:03:15.533Z,4.67
2019-04-30T04:05:45.781Z,4.30
2019-04-30T04:08:19.580Z,4.47
2019-04-30T04:10:53.019Z,4.37
2019-04-30T04:13:21.359Z,3.97
2019-04-30T04:15:50.104Z,4.50
2019-04-30T04:18:20.259Z,4.77
2019-04-30T04:20:52.051Z,4.00
2019-04-30T04:23:19.619Z,4.33
2019-04-30T04:25:49.822Z,4.67
2019-04-30T04:28:20.278Z,4.13
2019-04-30T04:30:50.664Z,5.37
2019-04-30T04:33:20.068Z,4.23
2019-04-30T04:35:49.896Z,4.03
2019-04-30T04:38:20.313Z,3.80
2019-04-30T04:40:50.208Z,3.80
2019-04-30T04:43:20.199Z,3.73
2019-04-30T04:45:49.813Z,4.63
2019-04-30T04:48:19.872Z,3.80
2019-04-30T04:50:50.144Z,4.37
2019-04-30T04:53:19.664Z,3.67
2019-04-30T04:55:49.959Z,3.20
2019-04-30T04:58:21.525Z,3.80
2019-04-30T05:00:49.587Z,3.70
2019-04-30T05:03:20.291Z,4.17
2019-04-30T05:05:49.913Z,3.87
2019-04-30T05:08:18.790Z,3.30
2019-04-30T05:10:49.383Z,3.17
2019-04-30T05:13:19.211Z,4.40
2019-04-30T05:15:51.268Z,4.33
2019-04-30T05:18:19.173Z,3.75
2019-04-30T05:20:49.073Z,3.20
2019-04-30T05:23:19.532Z,3.10
2019-04-30T05:25:49.102Z,3.23
2019-04-30T05:28:18.971Z,3.30
2019-04-30T05:30:49.419Z,3.33
2019-04-30T05:33:18.632Z,3.90
2019-04-30T05:35:49.456Z,3.70
2019-04-30T05:38:18.965Z,3.33
2019-04-30T05:40:49.600Z,3.17
2019-04-30T05:43:19.159Z,3.20
2019-04-30T05:45:49.243Z,3.67
2019-04-30T05:48:18.580Z,3.50
2019-04-30T05:50:51.480Z,2.90
2019-04-30T05:53:19.020Z,3.63
2019-04-30T05:55:49.388Z,3.50
2019-04-30T05:58:19.810Z,3.20
2019-04-30T06:00:49.892Z,3.10
2019-04-30T06:03:27.599Z,3.50
2019-04-30T06:05:49.590Z,3.03
2019-04-30T06:08:20.088Z,3.90
2019-04-30T06:11:05.616Z,3.10
2019-04-30T06:13:51.992Z,3.13
2019-04-30T06:16:22.365Z,2.90
2019-04-30T06:18:51.123Z,4.23
2019-04-30T06:21:21.571Z,2.70
2019-04-30T06:23:50.254Z,2.90
2019-04-30T06:26:20.663Z,4.27
2019-04-30T06:28:49.771Z,3.20
2019-04-30T06:31:31.256Z,2.90
2019-04-30T06:33:49.168Z,3.10
2019-04-30T06:36:19.061Z,3.33
2019-04-30T06:38:48.952Z,2.80
2019-04-30T06:41:19.684Z,3.27
2019-04-30T06:43:48.891Z,3.97
2019-04-30T06:46:18.705Z,2.70
2019-04-30T06:48:50.814Z,3.73
2019-04-30T06:51:18.987Z,3.63
2019-04-30T06:53:49.564Z,2.57
2019-04-30T06:56:18.975Z,2.73
2019-04-30T06:58:49.387Z,6.90
2019-04-30T07:01:19.068Z,4.07
2019-04-30T07:03:48.747Z,2.50
2019-04-30T07:06:27.557Z,2.80
2019-04-30T07:09:05.913Z,2.60
2019-04-30T07:11:36.388Z,2.23
2019-04-30T07:14:05.326Z,4.37
2019-04-30T07:16:34.140Z,3.07
2019-04-30T07:19:03.034Z,2.27
2019-04-30T07:21:31.884Z,1.90
2019-04-30T07:24:02.122Z,2.80
2019-04-30T07:26:30.821Z,3.23
2019-04-30T07:28:59.800Z,2.57
2019-04-30T07:31:29.793Z,2.13
2019-04-30T07:33:59.473Z,2.73
2019-04-30T07:36:43.504Z,2.33
2019-04-30T07:38:59.901Z,2.60
2019-04-30T07:41:30.922Z,2.90
2019-04-30T07:43:59.416Z,2.37
2019-04-30T07:46:29.984Z,2.27
2019-04-30T07:48:59.955Z,2.30
2019-04-30T07:51:32.088Z,2.20
2019-04-30T07:53:59.464Z,2.20
2019-04-30T07:56:31.704Z,3.57
2019-04-30T07:59:00.743Z,2.07
2019-04-30T08:01:29.493Z,2.20
2019-04-30T08:03:59.924Z,2.13
2019-04-30T08:06:31.049Z,2.70
2019-04-30T08:09:00.826Z,2.20
2019-04-30T08:11:34.506Z,2.80
2019-04-30T08:14:00.420Z,2.23
2019-04-30T08:16:29.867Z,2.27
2019-04-30T08:18:59.189Z,1.90
2019-04-30T08:21:28.807Z,2.03
2019-04-30T08:23:59.313Z,2.10
2019-04-30T08:26:28.709Z,2.63
2019-04-30T08:28:59.610Z,2.00
2019-04-30T08:31:29.187Z,2.20
2019-04-30T08:33:59.095Z,2.23
2019-04-30T08:36:29.835Z,1.90
2019-04-30T08:38:59.647Z,2.37
2019-04-30T08:41:29.267Z,3.53
2019-04-30T08:43:59.744Z,2.20
2019-04-30T08:46:28.907Z,2.00
2019-04-30T08:48:58.703Z,1.40
2019-04-30T08:51:28.936Z,2.10
2019-04-30T08:53:58.730Z,2.30
2019-04-30T08:56:29.145Z,2.00
2019-04-30T08:58:59.443Z,2.10
2019-04-30T09:01:29.372Z,2.03
2019-04-30T09:03:59.725Z,1.97
2019-04-30T09:06:29.763Z,1.63
2019-04-30T09:08:59.404Z,3.07
2019-04-30T09:11:33.881Z,1.80
2019-04-30T09:13:58.592Z,1.50
2019-04-30T09:16:29.309Z,1.40
2019-04-30T09:18:59.387Z,1.60
2019-04-30T09:21:30.054Z,2.00
2019-04-30T09:23:59.593Z,1.70
2019-04-30T09:26:29.060Z,2.10
2019-04-30T09:28:59.358Z,2.20
2019-04-30T09:31:29.659Z,1.90
2019-04-30T09:34:00.819Z,2.30
2019-04-30T09:36:29.226Z,2.17
2019-04-30T09:38:58.726Z,2.33
2019-04-30T09:41:28.857Z,1.80
2019-04-30T09:43:59.646Z,1.90
2019-04-30T09:46:29.911Z,1.70
2019-04-30T09:48:59.720Z,2.00
2019-04-30T09:51:30.619Z,1.97
2019-04-30T09:54:02.194Z,2.13
2019-04-30T09:56:29.566Z,2.33
2019-04-30T09:58:59.259Z,2.17
2019-04-30T10:01:28.155Z,1.90
2019-04-30T10:03:57.162Z,2.40
2019-04-30T10:06:37.004Z,1.90
2019-04-30T10:08:56.790Z,1.97
2019-04-30T10:11:27.004Z,2.60
2019-04-30T10:13:55.578Z,2.50
2019-04-30T10:16:25.826Z,2.23
2019-04-30T10:18:54.403Z,2.30
2019-04-30T10:21:22.987Z,2.00
2019-04-30T10:23:51.747Z,2.07
2019-04-30T10:26:20.471Z,2.30
2019-04-30T10:28:50.959Z,2.00
2019-04-30T10:31:20.903Z,2.40
2019-04-30T10:33:49.691Z,2.40
2019-04-30T10:36:19.423Z,2.60
2019-04-30T10:38:49.422Z,2.90
2019-04-30T10:41:18.818Z,2.50
2019-04-30T10:43:49.234Z,2.60
2019-04-30T10:46:18.050Z,3.13
2019-04-30T10:48:46.629Z,2.50
2019-04-30T10:51:15.281Z,2.43
2019-04-30T10:53:44.036Z,2.40
2019-04-30T10:56:12.645Z,2.10
2019-04-30T10:58:41.378Z,1.87
2019-04-30T11:01:10.236Z,2.40
2019-04-30T11:03:39.170Z,2.13
2019-04-30T11:06:08.677Z,1.90
2019-04-30T11:08:37.433Z,2.43
2019-04-30T11:11:06.217Z,2.20
2019-04-30T11:13:34.907Z,2.63
2019-04-30T11:16:12.622Z,2.80
2019-04-30T11:18:34.904Z,2.50
2019-04-30T11:21:03.997Z,2.30
2019-04-30T11:23:32.854Z,3.30
2019-04-30T11:26:02.409Z,2.67
2019-04-30T11:28:31.785Z,2.50
2019-04-30T11:31:18.921Z,2.60
2019-04-30T11:33:48.041Z,3.93
2019-04-30T11:36:19.202Z,2.67
2019-04-30T11:38:48.746Z,2.37
2019-04-30T11:41:29.552Z,2.80
2019-04-30T11:43:49.631Z,2.43
2019-04-30T11:46:28.714Z,2.77
2019-04-30T11:48:58.709Z,2.47
2019-04-30T11:51:29.350Z,2.70
2019-04-30T11:53:59.351Z,3.17
2019-04-30T11:56:28.193Z,3.63
2019-04-30T11:58:58.757Z,2.93
2019-04-30T12:01:28.991Z,2.70
2019-04-30T12:03:59.692Z,3.27
2019-04-30T12:06:28.566Z,2.77
2019-04-30T12:09:01.538Z,3.23
2019-04-30T12:11:34.815Z,3.13
2019-04-30T12:14:03.531Z,3.20
2019-04-30T12:16:33.681Z,2.77
2019-04-30T12:19:02.507Z,2.83
2019-04-30T12:21:31.098Z,3.17
2019-04-30T12:23:59.773Z,2.83
2019-04-30T12:26:28.879Z,3.00
2019-04-30T12:28:57.775Z,2.80
2019-04-30T12:31:26.363Z,2.60
2019-04-30T12:33:55.251Z,3.07
2019-04-30T12:36:23.823Z,3.07
2019-04-30T12:38:52.579Z,3.17
2019-04-30T12:41:21.164Z,3.40
2019-04-30T12:43:49.780Z,2.93
2019-04-30T12:46:19.027Z,2.60
2019-04-30T12:48:50.471Z,3.20
2019-04-30T12:51:23.856Z,2.97
2019-04-30T12:53:54.069Z,2.60
2019-04-30T12:56:27.404Z,3.30
2019-04-30T12:58:56.019Z,3.00
2019-04-30T13:01:24.868Z,2.83
2019-04-30T13:03:58.346Z,2.53
2019-04-30T13:06:24.472Z,2.77
2019-04-30T13:08:53.614Z,2.63
2019-04-30T13:11:23.336Z,2.70
2019-04-30T13:13:52.674Z,3.43
2019-04-30T13:16:21.682Z,6.30
2019-04-30T13:18:50.291Z,2.67
2019-04-30T13:21:18.982Z,2.13
2019-04-30T13:23:47.560Z,2.53
2019-04-30T13:26:16.146Z,2.70
2019-04-30T13:28:49.563Z,2.50
2019-04-30T13:31:19.360Z,3.27
2019-04-30T13:33:51.177Z,2.30
2019-04-30T13:36:19.957Z,2.97
2019-04-30T13:38:52.342Z,3.90
2019-04-30T13:41:37.214Z,2.50
2019-04-30T13:44:05.928Z,3.30
2019-04-30T13:46:34.508Z,2.87
2019-04-30T13:49:03.214Z,2.80
2019-04-30T13:51:31.867Z,2.73
2019-04-30T13:54:00.447Z,2.60
2019-04-30T13:56:29.120Z,2.47
2019-04-30T13:58:57.703Z,2.40
2019-04-30T14:01:26.286Z,2.73
2019-04-30T14:03:56.587Z,2.80
2019-04-30T14:06:28.804Z,3.00
2019-04-30T14:09:04.987Z,2.97
2019-04-30T14:11:33.574Z,2.30
2019-04-30T14:14:02.151Z,3.20
2019-04-30T14:16:30.903Z,2.73
2019-04-30T14:18:59.477Z,5.70
2019-04-30T14:21:34.591Z,2.80
2019-04-30T14:23:59.494Z,2.53
2019-04-30T14:26:29.200Z,3.23
2019-04-30T14:28:58.884Z,2.40
2019-04-30T14:31:28.822Z,2.80
2019-04-30T14:33:59.238Z,2.63
2019-04-30T14:36:29.186Z,3.20
2019-04-30T14:39:13.060Z,3.40
2019-04-30T14:41:31.541Z,2.27
2019-04-30T14:44:00.634Z,2.80
2019-04-30T14:46:34.728Z,3.50
2019-04-30T14:49:23.118Z,2.10
2019-04-30T14:51:52.387Z,2.73
2019-04-30T14:54:25.099Z,3.03
2019-04-30T14:57:10.796Z,3.17
2019-04-30T14:59:56.450Z,2.80
2019-04-30T15:02:29.520Z,2.90
2019-04-30T15:04:58.718Z,2.50
2019-04-30T15:07:29.451Z,2.60
2019-04-30T15:09:57.895Z,2.70
2019-04-30T15:12:26.470Z,2.17
2019-04-30T15:14:55.120Z,2.83
2019-04-30T15:17:23.886Z,2.87
2019-04-30T15:19:54.624Z,2.80
2019-04-30T15:22:23.390Z,2.77
2019-04-30T15:24:52.063Z,2.80
2019-04-30T15:27:20.791Z,2.43
2019-04-30T15:29:57.094Z,3.27
2019-04-30T15:32:19.830Z,2.80
2019-04-30T15:34:49.059Z,3.10
2019-04-30T15:37:21.692Z,2.50
2019-04-30T15:39:49.044Z,3.03
2019-04-30T15:42:18.943Z,2.77
2019-04-30T15:44:49.487Z,2.97
2019-04-30T15:47:19.080Z,2.70
2019-04-30T15:49:47.934Z,2.97
2019-04-30T15:52:16.606Z,2.60
2019-04-30T15:54:45.707Z,2.70
2019-04-30T15:57:14.800Z,2.70
2019-04-30T15:59:43.694Z,2.00
2019-04-30T16:02:18.749Z,3.27
2019-04-30T16:05:05.830Z,2.73
2019-04-30T16:07:40.592Z,2.53
2019-04-30T16:10:26.042Z,2.73
2019-04-30T16:13:02.356Z,2.93
2019-04-30T16:15:31.183Z,2.40
2019-04-30T16:18:01.447Z,2.47
2019-04-30T16:20:30.232Z,2.33
2019-04-30T16:22:59.147Z,2.93
2019-04-30T16:25:27.783Z,3.97
2019-04-30T16:27:56.404Z,2.67
2019-04-30T16:30:25.305Z,3.63
2019-04-30T16:32:53.905Z,3.10
2019-04-30T16:35:22.647Z,2.60
2019-04-30T16:37:51.382Z,3.10
2019-04-30T16:40:20.050Z,2.90
2019-04-30T16:42:49.442Z,3.40
2019-04-30T16:45:19.500Z,2.90
2019-04-30T16:47:48.449Z,3.03
2019-04-30T16:50:18.811Z,2.60
2019-04-30T16:52:49.694Z,3.07
2019-04-30T16:55:17.835Z,2.40
2019-04-30T16:57:46.511Z,2.53
2019-04-30T17:00:17.103Z,2.80
2019-04-30T17:02:49.288Z,2.90
2019-04-30T17:05:22.483Z,2.97
2019-04-30T17:08:04.893Z,2.90
2019-04-30T17:10:41.680Z,2.87
2019-04-30T17:13:11.925Z,2.93
2019-04-30T17:15:42.196Z,2.97
2019-04-30T17:18:12.158Z,2.80
2019-04-30T17:20:41.491Z,2.80
2019-04-30T17:23:10.095Z,3.90
2019-04-30T17:25:38.757Z,2.80
2019-04-30T17:28:09.230Z,4.57
2019-04-30T17:30:39.192Z,3.70
2019-04-30T17:33:09.530Z,3.00
2019-04-30T17:35:38.836Z,2.80
2019-04-30T17:38:07.613Z,2.90
2019-04-30T17:40:36.497Z,2.40
2019-04-30T17:43:05.278Z,2.60
2019-04-30T17:45:34.044Z,2.63
2019-04-30T17:48:02.702Z,3.80
2019-04-30T17:50:31.371Z,3.73
2019-04-30T17:53:00.711Z,3.00
2019-04-30T17:55:29.519Z,3.10
2019-04-30T17:57:58.522Z,2.63
2019-04-30T18:00:29.287Z,2.90
2019-04-30T18:02:58.382Z,2.50
2019-04-30T18:05:29.149Z,2.58
2019-04-30T18:07:57.348Z,3.43
2019-04-30T18:10:26.663Z,2.53
2019-04-30T18:12:55.302Z,2.90
2019-04-30T18:15:25.523Z,2.33
2019-04-30T18:18:13.735Z,2.90
2019-04-30T18:20:44.042Z,2.80
2019-04-30T18:23:30.492Z,2.20
2019-04-30T18:26:00.813Z,2.40
2019-04-30T18:28:29.422Z,2.90
2019-04-30T18:30:59.071Z,3.80
2019-04-30T18:33:27.816Z,4.17
2019-04-30T18:35:56.417Z,3.30
2019-04-30T18:38:25.053Z,3.83
2019-04-30T18:40:53.802Z,3.30
2019-04-30T18:43:22.401Z,3.30
2019-04-30T18:45:51.033Z,3.07
2019-04-30T18:48:19.639Z,4.80
2019-04-30T18:50:48.230Z,3.87
2019-04-30T18:53:18.717Z,3.20
2019-04-30T18:55:50.499Z,3.20
2019-04-30T18:58:20.043Z,3.27
2019-04-30T19:00:49.408Z,3.63
2019-04-30T19:03:21.619Z,3.37
2019-04-30T19:05:50.376Z,3.20
2019-04-30T19:08:26.108Z,3.77
2019-04-30T19:11:12.694Z,3.50
2019-04-30T19:13:50.812Z,3.87
2019-04-30T19:16:31.496Z,3.97
2019-04-30T19:19:02.586Z,4.43
2019-04-30T19:21:31.255Z,4.53
2019-04-30T19:23:59.856Z,3.43
2019-04-30T19:26:29.267Z,4.50
2019-04-30T19:28:57.996Z,5.17
2019-04-30T19:31:26.606Z,5.20
2019-04-30T19:33:55.315Z,7.40
2019-04-30T19:36:34.926Z,7.57
2019-04-30T19:38:54.251Z,6.67
2019-04-30T19:41:22.973Z,5.77
2019-04-30T19:43:51.594Z,6.13
2019-04-30T19:46:20.328Z,5.40
2019-04-30T19:48:50.723Z,4.77
2019-04-30T19:51:19.868Z,5.15
2019-04-30T19:53:49.061Z,5.33
2019-04-30T19:56:18.341Z,5.57
2019-04-30T19:58:59.214Z,5.63
2019-04-30T20:01:18.609Z,4.53
2019-04-30T20:03:48.042Z,6.93
2019-04-30T20:06:16.742Z,5.73
2019-04-30T20:08:45.442Z,5.90
2019-04-30T20:11:14.035Z,6.60
2019-04-30T20:13:42.649Z,5.00
2019-04-30T20:16:11.259Z,7.63
2019-04-30T20:18:40.161Z,6.33
2019-04-30T20:21:15.199Z,8.30
2019-04-30T20:23:44.047Z,7.40
2019-04-30T20:26:12.918Z,5.95
2019-04-30T20:28:42.524Z,5.03
2019-04-30T20:31:11.738Z,6.20
2019-04-30T20:33:40.461Z,10.57
2019-04-30T20:36:09.284Z,12.20
2019-04-30T20:38:39.858Z,8.30
2019-04-30T20:41:10.444Z,9.60
2019-04-30T20:43:39.520Z,9.80
2019-04-30T20:46:08.658Z,10.10
2019-04-30T20:48:39.344Z,10.07
2019-04-30T20:51:09.525Z,13.23
2019-04-30T20:53:39.106Z,6.43
2019-04-30T20:56:09.294Z,9.97
2019-04-30T20:58:40.463Z,9.87
2019-04-30T21:01:09.612Z,9.43
2019-04-30T21:03:39.611Z,9.33
2019-04-30T21:06:08.962Z,9.37
2019-04-30T21:08:37.827Z,8.50
2019-04-30T21:11:06.533Z,7.93
2019-04-30T21:13:35.211Z,9.50
2019-04-30T21:16:04.148Z,8.77
2019-04-30T21:18:32.937Z,10.60
2019-04-30T21:21:01.611Z,9.43
2019-04-30T21:23:30.431Z,8.10
2019-04-30T21:25:59.146Z,8.70
2019-04-30T21:28:29.641Z,11.80
2019-04-30T21:30:59.874Z,8.17
2019-04-30T21:33:42.476Z,7.63
2019-04-30T21:36:12.864Z,7.63
2019-04-30T21:38:41.541Z,7.90
2019-04-30T21:41:10.403Z,10.70
2019-04-30T21:43:39.073Z,20.17
2019-04-30T21:46:09.347Z,11.00
2019-04-30T21:48:38.847Z,7.60
2019-04-30T21:51:09.471Z,9.60
2019-04-30T21:53:39.616Z,12.07
2019-04-30T21:56:08.576Z,8.97
2019-04-30T21:58:39.133Z,11.13
2019-04-30T22:01:12.271Z,7.63
2019-04-30T22:03:41.945Z,6.57
2019-04-30T22:06:10.769Z,6.83
2019-04-30T22:08:39.509Z,6.20
2019-04-30T22:11:09.718Z,6.50
2019-04-30T22:13:39.702Z,7.70
2019-04-30T22:16:09.493Z,6.20
2019-04-30T22:18:38.103Z,6.50
2019-04-30T22:21:06.676Z,7.20
2019-04-30T22:23:35.362Z,8.00
2019-04-30T22:26:04.130Z,8.40
2019-04-30T22:28:32.716Z,7.90
2019-04-30T22:31:01.305Z,8.47
2019-04-30T22:33:29.906Z,7.23
2019-04-30T22:36:03.322Z,7.67
2019-04-30T22:38:39.619Z,7.90
2019-04-30T22:41:08.852Z,8.10
2019-04-30T22:43:37.555Z,8.33
2019-04-30T22:46:13.966Z,7.73
2019-04-30T22:48:42.617Z,8.30
2019-04-30T22:51:11.201Z,8.43
2019-04-30T22:53:39.960Z,6.80
2019-04-30T22:56:08.546Z,7.10
2019-04-30T22:58:37.118Z,6.53
2019-04-30T23:01:07.434Z,7.23
2019-04-30T23:03:36.378Z,6.03
2019-04-30T23:06:05.136Z,7.53
2019-04-30T23:08:33.730Z,6.10
2019-04-30T23:11:02.396Z,7.30
2019-04-30T23:13:30.976Z,6.47
2019-04-30T23:15:59.635Z,6.27
2019-04-30T23:18:28.211Z,6.80
2019-04-30T23:20:56.791Z,7.20
2019-04-30T23:23:26.028Z,6.90
2019-04-30T23:25:54.603Z,7.10
2019-04-30T23:28:23.191Z,7.33
2019-04-30T23:30:51.806Z,6.83
2019-04-30T23:33:20.386Z,6.27
2019-04-30T23:35:48.963Z,7.23
2019-04-30T23:38:17.575Z,7.40
2019-04-30T23:40:51.308Z,6.90
2019-04-30T23:43:20.731Z,6.83
2019-04-30T23:45:49.811Z,6.83
2019-04-30T23:48:18.500Z,7.00
2019-04-30T23:50:47.070Z,7.63
2019-04-30T23:53:15.701Z,7.17
2019-04-30T23:55:44.387Z,7.20
2019-04-30T23:58:13.145Z,7.83
